createdAt,value
2022-08-25T00:00:14.657Z,100597.56
2022-08-25T00:02:45.546Z,100605.16
2022-08-25T00:05:26.383Z,100601.47
2022-08-25T00:07:54.672Z,100605.19
2022-08-25T00:10:21.694Z,100601.50
2022-08-25T00:12:48.347Z,100604.03
2022-08-25T00:15:15.331Z,100613.00
2022-08-25T00:17:41.963Z,100603.47
2022-08-25T00:20:09.749Z,100610.34
2022-08-25T00:22:36.635Z,100610.25
2022-08-25T00:25:03.892Z,100612.41
2022-08-25T00:27:30.969Z,100613.56
2022-08-25T00:29:57.582Z,100613.81
2022-08-25T00:32:25.549Z,100615.75
2022-08-25T00:34:53.189Z,100608.75
2022-08-25T00:37:20.008Z,100610.47
2022-08-25T00:39:46.984Z,100606.78
2022-08-25T00:42:16.277Z,100604.47
2022-08-25T00:44:43.844Z,100609.66
2022-08-25T00:47:10.906Z,100607.22
2022-08-25T00:49:48.988Z,100600.59
2022-08-25T00:52:23.812Z,100600.09
2022-08-25T00:55:11.414Z,100606.59
2022-08-25T00:57:45.724Z,100605.16
2022-08-25T01:00:21.365Z,100604.94
2022-08-25T01:02:48.146Z,100604.81
2022-08-25T01:05:14.864Z,100603.44
2022-08-25T01:07:43.584Z,100607.56
2022-08-25T01:10:13.372Z,100601.16
2022-08-25T01:12:41.178Z,100606.78
2022-08-25T01:15:12.022Z,100603.81
2022-08-25T01:17:51.624Z,100609.88
2022-08-25T01:20:21.362Z,100609.06
2022-08-25T01:22:49.256Z,100603.53
2022-08-25T01:25:48.204Z,100614.91
2022-08-25T01:28:15.164Z,100601.50
2022-08-25T01:30:42.229Z,100612.41
2022-08-25T01:33:11.718Z,100610.88
2022-08-25T01:35:39.511Z,100608.59
2022-08-25T01:38:07.865Z,100601.28
2022-08-25T01:40:35.728Z,100600.78
2022-08-25T01:43:14.451Z,100609.84
2022-08-25T01:45:47.074Z,100609.84
2022-08-25T01:48:15.267Z,100611.25
2022-08-25T01:50:43.837Z,100602.84
2022-08-25T01:53:33.337Z,100602.50
2022-08-25T01:56:09.791Z,100611.09
2022-08-25T01:58:39.578Z,100609.94
2022-08-25T02:01:09.960Z,100604.00
2022-08-25T02:03:41.191Z,100611.56
2022-08-25T02:06:15.182Z,100614.38
2022-08-25T02:08:42.574Z,100607.81
2022-08-25T02:11:15.465Z,100622.50
2022-08-25T02:13:42.700Z,100608.84
2022-08-25T02:16:15.043Z,100606.22
2022-08-25T02:18:41.726Z,100607.41
2022-08-25T02:21:08.411Z,100601.25
2022-08-25T02:23:36.055Z,100606.91
2022-08-25T02:26:03.841Z,100604.63
2022-08-25T02:28:30.486Z,100601.84
2022-08-25T02:30:58.764Z,100605.97
2022-08-25T02:33:28.558Z,100607.56
2022-08-25T02:35:58.553Z,100597.00
2022-08-25T02:38:27.985Z,100599.81
2022-08-25T02:40:56.200Z,100598.09
2022-08-25T02:43:23.397Z,100597.06
2022-08-25T02:45:50.067Z,100596.72
2022-08-25T02:48:16.901Z,100593.41
2022-08-25T02:50:52.478Z,100595.34
2022-08-25T02:53:20.682Z,100585.25
2022-08-25T02:55:47.738Z,100585.25
2022-08-25T02:58:15.074Z,100590.19
2022-08-25T03:00:41.842Z,100588.34
2022-08-25T03:03:09.954Z,100588.94
2022-08-25T03:05:36.638Z,100581.53
2022-08-25T03:08:05.206Z,100582.22
2022-08-25T03:10:32.282Z,100588.19
2022-08-25T03:12:59.235Z,100580.28
2022-08-25T03:15:27.570Z,100583.69
2022-08-25T03:17:57.750Z,100591.47
2022-08-25T03:20:27.823Z,100586.13
2022-08-25T03:22:54.762Z,100586.78
2022-08-25T03:25:40.173Z,100579.84
2022-08-25T03:28:08.284Z,100588.38
2022-08-25T03:30:35.216Z,100589.97
2022-08-25T03:33:02.187Z,100587.97
2022-08-25T03:35:28.822Z,100593.88
2022-08-25T03:37:58.483Z,100595.41
2022-08-25T03:40:26.322Z,100593.72
2022-08-25T03:42:56.848Z,100593.41
2022-08-25T03:45:25.271Z,100592.13
2022-08-25T03:47:53.061Z,100587.63
2022-08-25T03:50:22.034Z,100586.50
2022-08-25T03:52:54.620Z,100574.34
2022-08-25T03:55:23.137Z,100572.53
2022-08-25T03:57:51.504Z,100564.38
2022-08-25T04:00:19.682Z,100565.81
2022-08-25T04:02:47.088Z,100567.72
2022-08-25T04:05:13.949Z,100562.69
2022-08-25T04:07:42.627Z,100565.44
2022-08-25T04:10:10.942Z,100570.00
2022-08-25T04:12:37.783Z,100571.91
2022-08-25T04:15:07.469Z,100574.47
2022-08-25T04:17:38.473Z,100580.56
2022-08-25T04:20:06.630Z,100575.22
2022-08-25T04:22:36.892Z,100577.03
2022-08-25T04:25:06.090Z,100578.28
2022-08-25T04:27:32.707Z,100576.22
2022-08-25T04:29:59.886Z,100591.16
2022-08-25T04:32:26.613Z,100588.91
2022-08-25T04:34:53.449Z,100596.03
2022-08-25T04:37:20.132Z,100587.06
2022-08-25T04:39:46.941Z,100598.56
2022-08-25T04:42:13.704Z,100596.63
2022-08-25T04:44:40.367Z,100591.88
2022-08-25T04:47:07.434Z,100592.56
2022-08-25T04:49:35.724Z,100588.47
2022-08-25T04:52:03.234Z,100585.06
2022-08-25T04:54:37.311Z,100577.31
2022-08-25T04:57:04.489Z,100577.34
2022-08-25T04:59:32.749Z,100583.31
2022-08-25T05:02:03.001Z,100575.09
2022-08-25T05:04:31.131Z,100573.50
2022-08-25T05:06:58.473Z,100577.22
2022-08-25T05:09:26.521Z,100570.56
2022-08-25T05:11:54.608Z,100579.78
2022-08-25T05:14:25.711Z,100583.69
2022-08-25T05:16:54.673Z,100579.56
2022-08-25T05:19:23.845Z,100581.41
2022-08-25T05:21:51.084Z,100579.50
2022-08-25T05:24:18.823Z,100575.28
2022-08-25T05:26:45.877Z,100572.34
2022-08-25T05:29:13.353Z,100562.50
2022-08-25T05:31:43.947Z,100562.50
2022-08-25T05:34:12.762Z,100559.28
2022-08-25T05:36:43.164Z,100563.03
2022-08-25T05:39:10.942Z,100565.59
2022-08-25T05:41:38.087Z,100563.81
2022-08-25T05:44:04.940Z,100569.16
2022-08-25T05:46:31.895Z,100564.97
2022-08-25T05:48:59.219Z,100568.66
2022-08-25T05:51:26.535Z,100564.81
2022-08-25T05:53:53.919Z,100562.91
2022-08-25T05:56:20.663Z,100561.47
2022-08-25T05:58:47.713Z,100561.25
2022-08-25T06:01:45.332Z,100564.03
2022-08-25T06:04:13.257Z,100561.88
2022-08-25T06:06:40.408Z,100557.66
2022-08-25T06:09:09.376Z,100555.38
2022-08-25T06:11:40.744Z,100563.09
2022-08-25T06:14:08.757Z,100559.66
2022-08-25T06:16:35.642Z,100564.63
2022-08-25T06:19:02.449Z,100567.56
2022-08-25T06:21:29.173Z,100559.13
2022-08-25T06:23:56.315Z,100566.72
2022-08-25T06:26:23.738Z,100559.66
2022-08-25T06:28:51.395Z,100567.03
2022-08-25T06:31:19.241Z,100568.94
2022-08-25T06:33:46.694Z,100563.94
2022-08-25T06:36:14.099Z,100556.59
2022-08-25T06:38:43.650Z,100557.78
2022-08-25T06:41:10.783Z,100557.50
2022-08-25T06:43:41.667Z,100562.88
2022-08-25T06:46:14.524Z,100562.66
2022-08-25T06:48:42.261Z,100561.25
2022-08-25T06:51:14.065Z,100566.75
2022-08-25T06:53:42.247Z,100554.88
2022-08-25T06:56:09.603Z,100556.50
2022-08-25T06:58:36.397Z,100555.31
2022-08-25T07:01:15.740Z,100558.31
2022-08-25T07:03:49.512Z,100558.91
2022-08-25T07:06:19.725Z,100554.53
2022-08-25T07:08:47.931Z,100553.84
2022-08-25T07:11:16.407Z,100554.53
2022-08-25T07:13:44.580Z,100546.97
2022-08-25T07:16:11.665Z,100545.28
2022-08-25T07:18:38.809Z,100536.31
2022-08-25T07:21:09.081Z,100533.69
2022-08-25T07:23:37.302Z,100537.78
2022-08-25T07:29:03.112Z,100534.19
2022-08-25T07:31:30.160Z,100535.06
2022-08-25T07:34:18.292Z,100535.91
2022-08-25T07:36:45.202Z,100532.81
2022-08-25T07:39:13.759Z,100526.13
2022-08-25T07:41:42.237Z,100539.38
2022-08-25T07:44:11.096Z,100539.22
2022-08-25T07:46:38.469Z,100541.19
2022-08-25T07:49:13.312Z,100539.88
2022-08-25T07:51:44.199Z,100538.09
2022-08-25T07:54:34.100Z,100535.00
2022-08-25T07:57:05.924Z,100535.88
2022-08-25T07:59:39.666Z,100533.47
2022-08-25T08:02:19.032Z,100536.31
2022-08-25T08:04:53.662Z,100543.53
2022-08-25T08:07:42.135Z,100543.59
2022-08-25T08:13:01.737Z,100541.00
2022-08-25T08:15:29.978Z,100547.59
2022-08-25T08:17:58.371Z,100544.81
2022-08-25T08:20:26.798Z,100549.59
2022-08-25T08:22:54.099Z,100548.00
2022-08-25T08:25:24.254Z,100536.53
2022-08-25T08:27:56.035Z,100546.22
2022-08-25T08:30:26.322Z,100542.56
2022-08-25T08:33:11.271Z,100550.69
2022-08-25T08:35:40.916Z,100550.66
2022-08-25T08:38:14.902Z,100546.19
2022-08-25T08:41:15.310Z,100549.22
2022-08-25T08:43:43.778Z,100547.53
2022-08-25T08:46:11.198Z,100545.81
2022-08-25T08:49:09.986Z,100545.03
2022-08-25T08:51:53.248Z,100539.19
2022-08-25T08:54:25.397Z,100535.44
2022-08-25T08:57:04.255Z,100524.06
2022-08-25T08:59:41.789Z,100527.38
2022-08-25T09:02:39.244Z,100529.03
2022-08-25T09:05:11.642Z,100525.50
2022-08-25T09:07:48.588Z,100526.78
2022-08-25T09:10:24.369Z,100526.50
2022-08-25T09:13:16.852Z,100530.63
2022-08-25T09:16:31.687Z,100521.75
2022-08-25T09:19:41.964Z,100517.00
2022-08-25T09:22:35.362Z,100525.53
2022-08-25T09:25:52.674Z,100521.66
2022-08-25T09:28:39.871Z,100513.59
2022-08-25T09:31:31.766Z,100508.94
2022-08-25T09:34:02.851Z,100498.88
2022-08-25T09:36:35.471Z,100501.34
2022-08-25T09:39:05.830Z,100494.88
2022-08-25T09:41:51.221Z,100496.41
2022-08-25T09:44:26.470Z,100490.00
2022-08-25T09:47:01.670Z,100484.31
2022-08-25T09:49:39.645Z,100488.84
2022-08-25T09:52:25.173Z,100479.16
2022-08-25T09:54:54.341Z,100477.84
2022-08-25T09:57:43.301Z,100471.75
2022-08-25T10:00:30.608Z,100471.53
2022-08-25T10:03:11.993Z,100463.44
2022-08-25T10:05:57.458Z,100455.59
2022-08-25T10:08:32.624Z,100462.03
2022-08-25T10:11:02.571Z,100459.22
2022-08-25T10:13:57.209Z,100446.94
2022-08-25T10:16:36.092Z,100450.38
2022-08-25T10:19:21.788Z,100437.72
2022-08-25T10:22:04.380Z,100437.84
2022-08-25T10:24:31.509Z,100439.03
2022-08-25T10:27:14.922Z,100441.06
2022-08-25T10:30:12.552Z,100437.75
2022-08-25T10:33:06.454Z,100435.03
2022-08-25T10:35:51.740Z,100436.78
2022-08-25T10:38:51.655Z,100432.16
2022-08-25T10:41:44.865Z,100431.88
2022-08-25T10:44:40.152Z,100420.13
2022-08-25T10:47:43.861Z,100421.41
2022-08-25T10:50:13.436Z,100413.63
2022-08-25T10:53:05.596Z,100418.72
2022-08-25T10:55:48.675Z,100414.03
2022-08-25T10:58:35.331Z,100412.00
2022-08-25T11:01:43.698Z,100402.47
2022-08-25T11:04:22.432Z,100401.69
2022-08-25T11:07:19.675Z,100396.88
2022-08-25T11:09:50.995Z,100393.59
2022-08-25T11:12:39.077Z,100401.25
2022-08-25T11:15:16.381Z,100399.81
2022-08-25T11:17:53.675Z,100391.31
2022-08-25T11:20:28.740Z,100388.56
2022-08-25T11:23:11.544Z,100378.91
2022-08-25T11:25:43.468Z,100378.66
2022-08-25T11:28:22.378Z,100379.25
2022-08-25T11:30:50.820Z,100374.75
2022-08-25T11:33:19.506Z,100377.97
2022-08-25T11:35:54.637Z,100377.53
2022-08-25T11:38:43.318Z,100374.63
2022-08-25T11:41:23.729Z,100375.47
2022-08-25T11:44:02.449Z,100374.72
2022-08-25T11:46:57.424Z,100374.50
2022-08-25T11:49:46.027Z,100364.13
2022-08-25T11:52:32.742Z,100371.22
2022-08-25T11:55:29.820Z,100356.69
2022-08-25T11:58:24.283Z,100360.25
2022-08-25T12:00:52.804Z,100357.91
2022-08-25T12:03:31.665Z,100353.16
2022-08-25T12:06:23.342Z,100355.41
2022-08-25T12:09:13.219Z,100341.09
2022-08-25T12:11:51.218Z,100347.00
2022-08-25T12:14:24.348Z,100340.53
2022-08-25T12:16:54.864Z,100340.16
2022-08-25T12:19:36.943Z,100339.38
2022-08-25T12:22:04.793Z,100339.53
2022-08-25T12:24:48.222Z,100345.66
2022-08-25T12:27:59.639Z,100332.28
2022-08-25T12:30:39.903Z,100328.72
2022-08-25T12:33:22.809Z,100327.28
2022-08-25T12:36:00.301Z,100325.44
2022-08-25T12:38:52.907Z,100326.44
2022-08-25T12:41:26.053Z,100324.19
2022-08-25T12:44:08.767Z,100324.69
2022-08-25T12:46:39.387Z,100311.88
2022-08-25T12:49:15.359Z,100315.94
2022-08-25T12:52:05.115Z,100319.25
2022-08-25T12:54:57.104Z,100320.56
2022-08-25T12:57:45.844Z,100314.72
2022-08-25T13:00:18.450Z,100313.66
2022-08-25T13:03:20.454Z,100300.31
2022-08-25T13:05:58.976Z,100298.38
2022-08-25T13:08:39.503Z,100294.81
2022-08-25T13:11:23.596Z,100300.28
2022-08-25T13:14:05.854Z,100298.78
2022-08-25T13:16:33.741Z,100288.16
2022-08-25T13:19:05.726Z,100288.81
2022-08-25T13:21:42.911Z,100283.41
2022-08-25T13:24:31.887Z,100283.16
2022-08-25T13:27:09.760Z,100283.50
2022-08-25T13:29:51.397Z,100274.22
2022-08-25T13:32:32.217Z,100278.59
2022-08-25T13:35:21.245Z,100266.97
2022-08-25T13:37:49.315Z,100271.53
2022-08-25T13:40:29.713Z,100269.88
2022-08-25T13:43:01.136Z,100261.69
2022-08-25T13:45:34.615Z,100260.69
2022-08-25T13:48:22.389Z,100257.50
2022-08-25T13:50:54.069Z,100255.13
2022-08-25T13:53:25.783Z,100257.75
2022-08-25T13:56:01.217Z,100246.13
2022-08-25T13:58:44.786Z,100252.22
2022-08-25T14:01:47.246Z,100249.16
2022-08-25T14:04:34.240Z,100240.28
2022-08-25T14:07:06.035Z,100242.41
2022-08-25T14:10:00.132Z,100234.25
2022-08-25T14:12:29.024Z,100236.22
2022-08-25T14:15:00.123Z,100235.38
2022-08-25T14:17:39.478Z,100240.75
2022-08-25T14:20:29.147Z,100237.66
2022-08-25T14:23:00.404Z,100225.25
2022-08-25T14:25:30.351Z,100221.88
2022-08-25T14:28:09.143Z,100225.34
2022-08-25T14:30:43.642Z,100216.84
2022-08-25T14:33:16.223Z,100229.72
2022-08-25T14:35:46.271Z,100230.31
2022-08-25T14:38:14.511Z,100219.50
2022-08-25T14:40:41.677Z,100226.53
2022-08-25T14:43:09.773Z,100216.69
2022-08-25T14:45:40.121Z,100218.34
2022-08-25T14:48:10.731Z,100213.63
2022-08-25T14:50:41.059Z,100216.25
2022-08-25T14:53:11.271Z,100210.13
2022-08-25T14:55:38.924Z,100206.56
2022-08-25T14:58:07.002Z,100204.91
2022-08-25T15:00:37.657Z,100202.09
2022-08-25T15:03:04.771Z,100198.13
2022-08-25T15:05:31.866Z,100194.88
2022-08-25T15:08:17.496Z,100198.78
2022-08-25T15:10:44.329Z,100200.22
2022-08-25T15:13:11.060Z,100195.72
2022-08-25T15:15:53.029Z,100198.13
2022-08-25T15:18:21.859Z,100196.94
2022-08-25T15:20:50.081Z,100193.72
2022-08-25T15:23:20.447Z,100195.34
2022-08-25T15:25:48.998Z,100187.75
2022-08-25T15:28:22.344Z,100185.28
2022-08-25T15:30:51.008Z,100178.84
2022-08-25T15:33:17.804Z,100182.69
2022-08-25T15:35:45.739Z,100174.53
2022-08-25T15:38:12.904Z,100179.97
2022-08-25T15:40:39.789Z,100173.69
2022-08-25T15:43:06.933Z,100172.09
2022-08-25T15:45:36.064Z,100164.47
2022-08-25T15:48:09.322Z,100173.16
2022-08-25T15:50:36.404Z,100167.06
2022-08-25T15:53:03.299Z,100167.78
2022-08-25T15:55:30.285Z,100163.84
2022-08-25T15:58:00.313Z,100158.28
2022-08-25T16:00:26.979Z,100159.53
2022-08-25T16:02:58.333Z,100159.81
2022-08-25T16:05:26.097Z,100162.53
2022-08-25T16:07:52.997Z,100153.03
2022-08-25T16:10:19.843Z,100156.09
2022-08-25T16:12:46.985Z,100152.53
2022-08-25T16:15:13.792Z,100149.47
2022-08-25T16:17:43.735Z,100153.13
2022-08-25T16:20:13.633Z,100138.41
2022-08-25T16:22:41.124Z,100152.53
2022-08-25T16:25:08.468Z,100141.16
2022-08-25T16:27:38.590Z,100146.25
2022-08-25T16:30:08.410Z,100134.16
2022-08-25T16:32:35.642Z,100141.41
2022-08-25T16:35:03.355Z,100131.78
2022-08-25T16:37:30.360Z,100129.69
2022-08-25T16:39:57.474Z,100138.78
2022-08-25T16:42:26.056Z,100133.88
2022-08-25T16:44:53.933Z,100133.13
2022-08-25T16:47:25.027Z,100134.97
2022-08-25T16:49:53.975Z,100133.09
2022-08-25T16:52:39.179Z,100140.00
2022-08-25T16:55:14.258Z,100141.34
2022-08-25T16:57:43.993Z,100131.31
2022-08-25T17:00:14.241Z,100132.06
2022-08-25T17:02:42.126Z,100134.78
2022-08-25T17:05:10.087Z,100130.59
2022-08-25T17:07:37.245Z,100132.06
2022-08-25T17:10:04.945Z,100126.41
2022-08-25T17:12:32.709Z,100125.56
2022-08-25T17:14:59.502Z,100124.97
2022-08-25T17:17:27.041Z,100127.69
2022-08-25T17:19:54.822Z,100116.63
2022-08-25T17:22:22.703Z,100121.72
2022-08-25T17:25:01.021Z,100128.47
2022-08-25T17:27:28.330Z,100130.22
2022-08-25T17:29:55.822Z,100126.88
2022-08-25T17:32:30.292Z,100129.34
2022-08-25T17:34:57.992Z,100129.56
2022-08-25T17:37:25.843Z,100128.84
2022-08-25T17:40:02.423Z,100129.22
2022-08-25T17:42:30.540Z,100130.06
2022-08-25T17:44:58.067Z,100134.81
2022-08-25T17:47:24.905Z,100127.53
2022-08-25T17:49:52.256Z,100128.72
2022-08-25T17:52:22.469Z,100136.94
2022-08-25T17:54:52.625Z,100134.94
2022-08-25T17:57:19.774Z,100131.44
2022-08-25T17:59:48.233Z,100135.03
2022-08-25T18:02:14.955Z,100129.91
2022-08-25T18:04:42.428Z,100135.47
2022-08-25T18:07:10.151Z,100135.34
2022-08-25T18:09:36.897Z,100141.66
2022-08-25T18:12:04.093Z,100138.47
2022-08-25T18:14:30.826Z,100137.25
2022-08-25T18:16:57.520Z,100135.19
2022-08-25T18:19:24.189Z,100139.09
2022-08-25T18:21:52.471Z,100140.69
2022-08-25T18:24:19.421Z,100139.91
2022-08-25T18:26:46.941Z,100142.56
2022-08-25T18:29:14.045Z,100141.00
2022-08-25T18:31:45.767Z,100145.22
2022-08-25T18:34:14.127Z,100147.16
2022-08-25T18:36:40.828Z,100143.13
2022-08-25T18:39:31.546Z,100141.94
2022-08-25T18:42:01.689Z,100148.25
2022-08-25T18:44:29.311Z,100152.59
2022-08-25T18:46:56.764Z,100149.00
2022-08-25T18:49:26.762Z,100146.59
2022-08-25T18:51:57.843Z,100147.66
2022-08-25T18:54:24.525Z,100149.38
2022-08-25T18:56:54.612Z,100156.59
2022-08-25T18:59:23.511Z,100153.41
2022-08-25T19:01:52.633Z,100151.03
2022-08-25T19:04:19.769Z,100146.97
2022-08-25T19:06:46.681Z,100155.72
2022-08-25T19:09:13.289Z,100157.03
2022-08-25T19:11:39.953Z,100145.00
2022-08-25T19:14:12.010Z,100151.63
2022-08-25T19:16:41.168Z,100152.00
2022-08-25T19:19:12.421Z,100158.31
2022-08-25T19:21:40.915Z,100151.91
2022-08-25T19:24:08.866Z,100161.28
2022-08-25T19:26:36.207Z,100156.47
2022-08-25T19:29:06.393Z,100161.66
2022-08-25T19:31:37.197Z,100155.53
2022-08-25T19:34:08.865Z,100157.50
2022-08-25T19:36:35.855Z,100159.06
2022-08-25T19:39:03.276Z,100166.16
2022-08-25T19:41:31.238Z,100162.66
2022-08-25T19:43:59.355Z,100169.72
2022-08-25T19:46:33.108Z,100167.94
2022-08-25T19:49:21.553Z,100160.63
2022-08-25T19:51:51.399Z,100165.78
2022-08-25T19:54:26.187Z,100168.47
2022-08-25T19:56:54.384Z,100164.16
2022-08-25T19:59:34.167Z,100173.88
2022-08-25T20:02:09.549Z,100177.28
2022-08-25T20:04:37.659Z,100176.56
2022-08-25T20:07:04.459Z,100169.34
2022-08-25T20:09:39.444Z,100176.88
2022-08-25T20:12:09.226Z,100168.66
2022-08-25T20:14:36.480Z,100174.53
2022-08-25T20:17:03.867Z,100170.09
2022-08-25T20:19:41.612Z,100174.56
2022-08-25T20:22:09.268Z,100180.19
2022-08-25T20:24:55.917Z,100175.97
2022-08-25T20:27:28.073Z,100176.09
2022-08-25T20:29:58.429Z,100177.41
2022-08-25T20:32:25.311Z,100173.47
2022-08-25T20:34:55.702Z,100178.31
2022-08-25T20:37:22.890Z,100181.25
2022-08-25T20:39:49.743Z,100183.28
2022-08-25T20:42:16.465Z,100180.94
2022-08-25T20:44:43.201Z,100186.47
2022-08-25T20:47:10.982Z,100178.59
2022-08-25T20:49:39.523Z,100173.25
2022-08-25T20:52:07.513Z,100175.56
2022-08-25T20:54:34.912Z,100181.53
2022-08-25T20:57:02.467Z,100179.34
2022-08-25T20:59:29.512Z,100179.13
2022-08-25T21:01:56.523Z,100178.50
2022-08-25T21:04:26.784Z,100174.84
2022-08-25T21:06:53.496Z,100179.22
2022-08-25T21:09:22.901Z,100180.72
2022-08-25T21:11:53.241Z,100186.19
2022-08-25T21:14:21.776Z,100181.09
2022-08-25T21:16:49.237Z,100176.63
2022-08-25T21:19:26.659Z,100183.06
2022-08-25T21:21:59.450Z,100184.16
2022-08-25T21:24:28.339Z,100182.50
2022-08-25T21:26:57.055Z,100186.06
2022-08-25T21:29:28.420Z,100179.66
2022-08-25T21:31:58.544Z,100181.34
2022-08-25T21:34:26.477Z,100181.25
2022-08-25T21:36:57.684Z,100187.13
2022-08-25T21:39:27.435Z,100189.88
2022-08-25T21:41:55.407Z,100188.47
2022-08-25T21:44:22.262Z,100183.13
2022-08-25T21:46:54.107Z,100188.75
2022-08-25T21:49:23.313Z,100179.34
2022-08-25T21:52:02.413Z,100185.16
2022-08-25T21:54:31.347Z,100178.91
2022-08-25T21:57:00.782Z,100175.41
2022-08-25T21:59:33.288Z,100186.81
2022-08-25T22:02:02.596Z,100182.84
2022-08-25T22:04:30.326Z,100188.56
2022-08-25T22:06:58.984Z,100187.63
2022-08-25T22:09:28.179Z,100182.53
2022-08-25T22:11:57.244Z,100186.03
2022-08-25T22:14:26.710Z,100180.34
2022-08-25T22:16:54.803Z,100180.78
2022-08-25T22:19:22.738Z,100186.59
2022-08-25T22:21:51.113Z,100182.66
2022-08-25T22:24:18.927Z,100184.28
2022-08-25T22:26:47.657Z,100181.88
2022-08-25T22:29:24.758Z,100178.03
2022-08-25T22:31:53.151Z,100178.91
2022-08-25T22:34:30.633Z,100178.03
2022-08-25T22:37:00.083Z,100174.38
2022-08-25T22:39:27.559Z,100174.81
2022-08-25T22:41:54.479Z,100183.53
2022-08-25T22:44:23.135Z,100183.69
2022-08-25T22:46:49.981Z,100178.97
2022-08-25T22:49:16.847Z,100176.66
2022-08-25T22:51:44.095Z,100176.47
2022-08-25T22:54:14.943Z,100170.59
2022-08-25T22:56:41.990Z,100172.91
2022-08-25T22:59:12.727Z,100172.19
2022-08-25T23:01:40.465Z,100171.41
2022-08-25T23:04:07.718Z,100171.31
2022-08-25T23:06:34.996Z,100171.25
2022-08-25T23:09:04.915Z,100172.84
2022-08-25T23:11:31.717Z,100172.84
2022-08-25T23:14:05.440Z,100166.53
2022-08-25T23:16:33.121Z,100168.03
2022-08-25T23:19:00.425Z,100169.44
2022-08-25T23:21:46.444Z,100173.38
2022-08-25T23:24:14.846Z,100166.19
2022-08-25T23:26:56.269Z,100168.66
2022-08-25T23:29:23.159Z,100165.03
2022-08-25T23:31:51.980Z,100163.78
2022-08-25T23:34:21.747Z,100162.56
2022-08-25T23:36:48.952Z,100164.25
2022-08-25T23:39:15.621Z,100158.03
2022-08-25T23:41:42.493Z,100165.88
2022-08-25T23:44:11.864Z,100160.50
2022-08-25T23:46:45.355Z,100156.41
2022-08-25T23:49:14.748Z,100166.16
2022-08-25T23:51:47.043Z,100164.19
2022-08-25T23:54:14.604Z,100163.28
2022-08-25T23:56:51.449Z,100165.16
2022-08-25T23:59:24.329Z,100166.31
